sensor_id;sensor_type;location;lat;lon;timestamp;P1;durP1;ratioP1;P2;durP2;ratioP2
19113;SDS011;9689;51.052;13.772;2023-05-07T00:03:47;20.27;;;12.60;;
19113;SDS011;9689;51.052;13.772;2023-05-07T00:08:48;24.13;;;14.27;;
19113;SDS011;9689;51.052;13.772;2023-05-07T00:13:49;28.15;;;12.85;;
19113;SDS011;9689;51.052;13.772;2023-05-07T00:18:51;27.35;;;14.68;;
19113;SDS011;9689;51.052;13.772;2023-05-07T00:23:52;23.10;;;13.07;;
19113;SDS011;9689;51.052;13.772;2023-05-07T00:28:53;27.02;;;13.60;;
19113;SDS011;9689;51.052;13.772;2023-05-07T00:33:55;27.50;;;14.35;;
19113;SDS011;9689;51.052;13.772;2023-05-07T00:38:56;26.90;;;14.50;;
19113;SDS011;9689;51.052;13.772;2023-05-07T00:43:59;26.27;;;14.60;;
19113;SDS011;9689;51.052;13.772;2023-05-07T00:49:02;26.40;;;15.55;;
19113;SDS011;9689;51.052;13.772;2023-05-07T00:54:03;27.90;;;16.25;;
19113;SDS011;9689;51.052;13.772;2023-05-07T00:59:04;26.60;;;15.90;;
19113;SDS011;9689;51.052;13.772;2023-05-07T01:04:07;29.92;;;16.65;;
19113;SDS011;9689;51.052;13.772;2023-05-07T01:09:08;26.50;;;15.02;;
19113;SDS011;9689;51.052;13.772;2023-05-07T01:14:09;30.25;;;16.15;;
19113;SDS011;9689;51.052;13.772;2023-05-07T01:19:12;26.05;;;15.00;;
19113;SDS011;9689;51.052;13.772;2023-05-07T01:24:16;22.38;;;13.32;;
19113;SDS011;9689;51.052;13.772;2023-05-07T01:29:18;24.00;;;13.27;;
19113;SDS011;9689;51.052;13.772;2023-05-07T01:34:19;25.10;;;14.00;;
19113;SDS011;9689;51.052;13.772;2023-05-07T01:39:24;29.48;;;14.10;;
19113;SDS011;9689;51.052;13.772;2023-05-07T01:44:25;25.35;;;13.90;;
19113;SDS011;9689;51.052;13.772;2023-05-07T01:49:27;23.63;;;13.70;;
19113;SDS011;9689;51.052;13.772;2023-05-07T01:54:29;22.00;;;13.80;;
19113;SDS011;9689;51.052;13.772;2023-05-07T01:59:31;19.50;;;12.13;;
19113;SDS011;9689;51.052;13.772;2023-05-07T02:04:31;22.75;;;12.68;;
19113;SDS011;9689;51.052;13.772;2023-05-07T02:09:34;19.38;;;11.88;;
19113;SDS011;9689;51.052;13.772;2023-05-07T02:14:35;25.30;;;13.48;;
19113;SDS011;9689;51.052;13.772;2023-05-07T02:19:36;20.30;;;12.27;;
19113;SDS011;9689;51.052;13.772;2023-05-07T02:24:38;20.30;;;12.82;;
19113;SDS011;9689;51.052;13.772;2023-05-07T02:29:39;26.67;;;14.65;;
19113;SDS011;9689;51.052;13.772;2023-05-07T02:34:39;19.88;;;11.65;;
19113;SDS011;9689;51.052;13.772;2023-05-07T02:39:41;21.30;;;12.13;;
19113;SDS011;9689;51.052;13.772;2023-05-07T02:44:42;17.63;;;11.50;;
19113;SDS011;9689;51.052;13.772;2023-05-07T02:49:43;16.92;;;11.20;;
19113;SDS011;9689;51.052;13.772;2023-05-07T02:54:46;17.13;;;11.20;;
19113;SDS011;9689;51.052;13.772;2023-05-07T02:59:47;13.82;;;8.40;;
19113;SDS011;9689;51.052;13.772;2023-05-07T03:04:49;16.33;;;8.90;;
19113;SDS011;9689;51.052;13.772;2023-05-07T03:09:51;15.60;;;9.38;;
19113;SDS011;9689;51.052;13.772;2023-05-07T03:14:53;14.27;;;8.35;;
19113;SDS011;9689;51.052;13.772;2023-05-07T03:19:53;16.17;;;9.23;;
19113;SDS011;9689;51.052;13.772;2023-05-07T03:24:55;16.20;;;9.30;;
19113;SDS011;9689;51.052;13.772;2023-05-07T03:29:56;20.02;;;10.40;;
19113;SDS011;9689;51.052;13.772;2023-05-07T03:34:57;17.17;;;10.43;;
19113;SDS011;9689;51.052;13.772;2023-05-07T03:39:59;18.98;;;10.48;;
19113;SDS011;9689;51.052;13.772;2023-05-07T03:45:01;18.60;;;10.10;;
19113;SDS011;9689;51.052;13.772;2023-05-07T03:50:03;16.17;;;9.80;;
19113;SDS011;9689;51.052;13.772;2023-05-07T03:55:06;22.13;;;11.30;;
19113;SDS011;9689;51.052;13.772;2023-05-07T04:00:09;24.77;;;12.15;;
19113;SDS011;9689;51.052;13.772;2023-05-07T04:05:20;25.38;;;12.32;;
19113;SDS011;9689;51.052;13.772;2023-05-07T04:10:26;25.15;;;12.18;;
19113;SDS011;9689;51.052;13.772;2023-05-07T04:15:28;24.73;;;12.23;;
19113;SDS011;9689;51.052;13.772;2023-05-07T04:20:29;24.27;;;12.20;;
19113;SDS011;9689;51.052;13.772;2023-05-07T04:25:36;21.30;;;11.65;;
19113;SDS011;9689;51.052;13.772;2023-05-07T04:30:45;21.45;;;10.95;;
19113;SDS011;9689;51.052;13.772;2023-05-07T04:35:46;18.83;;;9.98;;
19113;SDS011;9689;51.052;13.772;2023-05-07T04:40:48;18.58;;;9.75;;
19113;SDS011;9689;51.052;13.772;2023-05-07T04:45:53;21.52;;;11.18;;
19113;SDS011;9689;51.052;13.772;2023-05-07T04:50:56;18.13;;;10.68;;
19113;SDS011;9689;51.052;13.772;2023-05-07T04:55:59;23.95;;;11.88;;
19113;SDS011;9689;51.052;13.772;2023-05-07T05:01:06;24.23;;;11.15;;
19113;SDS011;9689;51.052;13.772;2023-05-07T05:06:07;21.40;;;11.20;;
19113;SDS011;9689;51.052;13.772;2023-05-07T05:11:10;20.05;;;11.27;;
19113;SDS011;9689;51.052;13.772;2023-05-07T05:16:11;24.38;;;11.65;;
19113;SDS011;9689;51.052;13.772;2023-05-07T05:21:12;22.73;;;12.20;;
19113;SDS011;9689;51.052;13.772;2023-05-07T05:26:16;19.52;;;10.80;;
19113;SDS011;9689;51.052;13.772;2023-05-07T05:31:17;21.58;;;11.63;;
19113;SDS011;9689;51.052;13.772;2023-05-07T05:36:21;19.45;;;11.35;;
19113;SDS011;9689;51.052;13.772;2023-05-07T05:41:26;19.98;;;10.88;;
19113;SDS011;9689;51.052;13.772;2023-05-07T05:46:27;23.77;;;12.27;;
19113;SDS011;9689;51.052;13.772;2023-05-07T05:51:28;23.67;;;12.73;;
19113;SDS011;9689;51.052;13.772;2023-05-07T05:56:32;18.25;;;10.60;;
19113;SDS011;9689;51.052;13.772;2023-05-07T06:01:33;15.77;;;8.95;;
19113;SDS011;9689;51.052;13.772;2023-05-07T06:06:36;13.45;;;8.15;;
19113;SDS011;9689;51.052;13.772;2023-05-07T06:11:41;12.57;;;7.32;;
19113;SDS011;9689;51.052;13.772;2023-05-07T06:16:43;13.00;;;7.07;;
19113;SDS011;9689;51.052;13.772;2023-05-07T06:21:44;13.60;;;6.88;;
19113;SDS011;9689;51.052;13.772;2023-05-07T06:26:46;10.52;;;5.85;;
19113;SDS011;9689;51.052;13.772;2023-05-07T06:31:47;7.78;;;4.50;;
19113;SDS011;9689;51.052;13.772;2023-05-07T06:36:48;8.60;;;5.15;;
19113;SDS011;9689;51.052;13.772;2023-05-07T06:42:03;9.25;;;5.78;;
19113;SDS011;9689;51.052;13.772;2023-05-07T06:47:05;12.82;;;6.90;;
19113;SDS011;9689;51.052;13.772;2023-05-07T06:52:07;11.60;;;6.57;;
19113;SDS011;9689;51.052;13.772;2023-05-07T06:57:10;11.40;;;6.22;;
19113;SDS011;9689;51.052;13.772;2023-05-07T07:02:11;12.10;;;6.50;;
19113;SDS011;9689;51.052;13.772;2023-05-07T07:07:18;13.20;;;7.60;;
19113;SDS011;9689;51.052;13.772;2023-05-07T07:12:22;12.48;;;8.07;;
19113;SDS011;9689;51.052;13.772;2023-05-07T07:17:25;12.05;;;7.00;;
19113;SDS011;9689;51.052;13.772;2023-05-07T07:22:27;10.35;;;5.75;;
19113;SDS011;9689;51.052;13.772;2023-05-07T07:27:29;9.88;;;5.45;;
19113;SDS011;9689;51.052;13.772;2023-05-07T07:32:30;6.72;;;4.15;;
19113;SDS011;9689;51.052;13.772;2023-05-07T07:37:32;6.07;;;3.95;;
19113;SDS011;9689;51.052;13.772;2023-05-07T07:42:34;6.68;;;3.47;;
19113;SDS011;9689;51.052;13.772;2023-05-07T07:47:35;6.32;;;4.55;;
19113;SDS011;9689;51.052;13.772;2023-05-07T07:52:36;5.22;;;3.78;;
19113;SDS011;9689;51.052;13.772;2023-05-07T07:57:40;7.03;;;4.55;;
19113;SDS011;9689;51.052;13.772;2023-05-07T08:02:41;6.45;;;4.47;;
19113;SDS011;9689;51.052;13.772;2023-05-07T08:07:48;7.90;;;3.80;;
19113;SDS011;9689;51.052;13.772;2023-05-07T08:12:56;5.40;;;3.80;;
19113;SDS011;9689;51.052;13.772;2023-05-07T08:17:57;5.72;;;3.03;;
19113;SDS011;9689;51.052;13.772;2023-05-07T08:23:00;7.88;;;4.20;;
19113;SDS011;9689;51.052;13.772;2023-05-07T08:28:02;8.93;;;3.85;;
19113;SDS011;9689;51.052;13.772;2023-05-07T08:33:04;4.65;;;3.17;;
19113;SDS011;9689;51.052;13.772;2023-05-07T08:38:05;4.18;;;3.08;;
19113;SDS011;9689;51.052;13.772;2023-05-07T08:43:08;6.15;;;3.50;;
19113;SDS011;9689;51.052;13.772;2023-05-07T08:48:14;4.93;;;3.33;;
19113;SDS011;9689;51.052;13.772;2023-05-07T08:53:23;7.72;;;4.90;;
19113;SDS011;9689;51.052;13.772;2023-05-07T08:58:25;9.50;;;4.35;;
19113;SDS011;9689;51.052;13.772;2023-05-07T09:03:26;8.32;;;5.20;;
19113;SDS011;9689;51.052;13.772;2023-05-07T09:08:28;11.38;;;5.93;;
19113;SDS011;9689;51.052;13.772;2023-05-07T09:13:34;8.68;;;5.80;;
19113;SDS011;9689;51.052;13.772;2023-05-07T09:18:36;9.45;;;5.90;;
19113;SDS011;9689;51.052;13.772;2023-05-07T09:23:43;11.65;;;6.10;;
19113;SDS011;9689;51.052;13.772;2023-05-07T09:28:47;8.95;;;5.78;;
19113;SDS011;9689;51.052;13.772;2023-05-07T09:33:48;7.90;;;5.88;;
19113;SDS011;9689;51.052;13.772;2023-05-07T09:38:50;10.23;;;6.00;;
19113;SDS011;9689;51.052;13.772;2023-05-07T09:43:54;8.15;;;5.50;;
19113;SDS011;9689;51.052;13.772;2023-05-07T09:49:01;6.13;;;5.07;;
19113;SDS011;9689;51.052;13.772;2023-05-07T09:54:06;6.57;;;5.15;;
19113;SDS011;9689;51.052;13.772;2023-05-07T09:59:13;7.05;;;4.72;;
19113;SDS011;9689;51.052;13.772;2023-05-07T10:04:16;9.95;;;6.40;;
19113;SDS011;9689;51.052;13.772;2023-05-07T10:09:18;8.73;;;6.40;;
19113;SDS011;9689;51.052;13.772;2023-05-07T10:14:20;11.27;;;5.85;;
19113;SDS011;9689;51.052;13.772;2023-05-07T10:19:23;10.05;;;6.25;;
19113;SDS011;9689;51.052;13.772;2023-05-07T10:24:26;10.40;;;6.63;;
19113;SDS011;9689;51.052;13.772;2023-05-07T10:29:39;10.38;;;6.35;;
19113;SDS011;9689;51.052;13.772;2023-05-07T10:34:50;9.25;;;5.90;;
19113;SDS011;9689;51.052;13.772;2023-05-07T10:39:55;9.40;;;6.13;;
19113;SDS011;9689;51.052;13.772;2023-05-07T10:45:12;8.30;;;5.47;;
19113;SDS011;9689;51.052;13.772;2023-05-07T10:50:20;10.90;;;6.07;;
19113;SDS011;9689;51.052;13.772;2023-05-07T10:55:26;6.75;;;5.30;;
19113;SDS011;9689;51.052;13.772;2023-05-07T11:00:57;9.32;;;4.90;;
19113;SDS011;9689;51.052;13.772;2023-05-07T11:06:08;9.40;;;5.03;;
19113;SDS011;9689;51.052;13.772;2023-05-07T11:11:45;6.57;;;4.72;;
19113;SDS011;9689;51.052;13.772;2023-05-07T11:17:13;6.68;;;4.90;;
19113;SDS011;9689;51.052;13.772;2023-05-07T11:22:36;6.53;;;4.70;;
19113;SDS011;9689;51.052;13.772;2023-05-07T11:27:47;8.77;;;5.00;;
19113;SDS011;9689;51.052;13.772;2023-05-07T11:32:50;8.23;;;5.15;;
19113;SDS011;9689;51.052;13.772;2023-05-07T11:37:57;6.25;;;4.70;;
19113;SDS011;9689;51.052;13.772;2023-05-07T11:43:09;12.38;;;6.20;;
19113;SDS011;9689;51.052;13.772;2023-05-07T11:48:12;11.07;;;5.93;;
19113;SDS011;9689;51.052;13.772;2023-05-07T11:53:13;11.05;;;6.78;;
19113;SDS011;9689;51.052;13.772;2023-05-07T11:58:20;6.85;;;4.75;;
19113;SDS011;9689;51.052;13.772;2023-05-07T12:03:23;6.43;;;4.93;;
19113;SDS011;9689;51.052;13.772;2023-05-07T12:08:26;7.30;;;4.90;;
19113;SDS011;9689;51.052;13.772;2023-05-07T12:13:26;6.50;;;4.15;;
19113;SDS011;9689;51.052;13.772;2023-05-07T12:18:28;8.32;;;4.57;;
19113;SDS011;9689;51.052;13.772;2023-05-07T12:23:31;6.20;;;4.43;;
19113;SDS011;9689;51.052;13.772;2023-05-07T12:28:36;6.38;;;4.43;;
19113;SDS011;9689;51.052;13.772;2023-05-07T12:33:39;8.77;;;4.78;;
19113;SDS011;9689;51.052;13.772;2023-05-07T12:38:40;5.95;;;4.13;;
19113;SDS011;9689;51.052;13.772;2023-05-07T12:43:43;5.35;;;4.20;;
19113;SDS011;9689;51.052;13.772;2023-05-07T12:48:48;5.75;;;4.18;;
19113;SDS011;9689;51.052;13.772;2023-05-07T12:53:49;6.80;;;4.63;;
19113;SDS011;9689;51.052;13.772;2023-05-07T12:58:50;4.95;;;3.80;;
19113;SDS011;9689;51.052;13.772;2023-05-07T13:03:52;6.25;;;4.57;;
19113;SDS011;9689;51.052;13.772;2023-05-07T13:08:53;9.80;;;4.40;;
19113;SDS011;9689;51.052;13.772;2023-05-07T13:13:54;5.85;;;4.30;;
19113;SDS011;9689;51.052;13.772;2023-05-07T13:18:56;6.32;;;4.05;;
19113;SDS011;9689;51.052;13.772;2023-05-07T13:23:57;5.22;;;3.78;;
19113;SDS011;9689;51.052;13.772;2023-05-07T13:28:58;5.65;;;4.00;;
19113;SDS011;9689;51.052;13.772;2023-05-07T13:34:00;5.63;;;3.75;;
19113;SDS011;9689;51.052;13.772;2023-05-07T13:39:01;5.60;;;3.85;;
19113;SDS011;9689;51.052;13.772;2023-05-07T13:44:01;5.75;;;3.70;;
19113;SDS011;9689;51.052;13.772;2023-05-07T13:49:03;4.93;;;4.13;;
19113;SDS011;9689;51.052;13.772;2023-05-07T13:54:04;5.97;;;4.07;;
19113;SDS011;9689;51.052;13.772;2023-05-07T13:59:05;6.63;;;4.03;;
19113;SDS011;9689;51.052;13.772;2023-05-07T14:04:07;6.57;;;3.58;;
19113;SDS011;9689;51.052;13.772;2023-05-07T14:09:08;4.47;;;3.28;;
19113;SDS011;9689;51.052;13.772;2023-05-07T14:14:11;7.68;;;3.50;;
19113;SDS011;9689;51.052;13.772;2023-05-07T14:19:13;4.13;;;2.88;;
19113;SDS011;9689;51.052;13.772;2023-05-07T14:24:14;6.60;;;3.90;;
19113;SDS011;9689;51.052;13.772;2023-05-07T14:29:33;4.20;;;2.83;;
19113;SDS011;9689;51.052;13.772;2023-05-07T14:34:36;3.70;;;2.75;;
19113;SDS011;9689;51.052;13.772;2023-05-07T14:39:37;3.38;;;2.35;;
19113;SDS011;9689;51.052;13.772;2023-05-07T14:44:37;6.43;;;2.78;;
19113;SDS011;9689;51.052;13.772;2023-05-07T14:49:41;5.35;;;2.60;;
19113;SDS011;9689;51.052;13.772;2023-05-07T14:54:42;3.55;;;2.60;;
19113;SDS011;9689;51.052;13.772;2023-05-07T14:59:43;5.78;;;3.13;;
19113;SDS011;9689;51.052;13.772;2023-05-07T15:04:45;8.65;;;3.53;;
19113;SDS011;9689;51.052;13.772;2023-05-07T15:09:45;3.88;;;3.00;;
19113;SDS011;9689;51.052;13.772;2023-05-07T15:14:46;5.13;;;3.30;;
19113;SDS011;9689;51.052;13.772;2023-05-07T15:19:48;7.57;;;3.80;;
19113;SDS011;9689;51.052;13.772;2023-05-07T15:24:51;6.75;;;3.70;;
19113;SDS011;9689;51.052;13.772;2023-05-07T15:29:54;6.30;;;3.85;;
19113;SDS011;9689;51.052;13.772;2023-05-07T15:34:56;4.15;;;3.38;;
19113;SDS011;9689;51.052;13.772;2023-05-07T15:39:57;8.85;;;4.25;;
19113;SDS011;9689;51.052;13.772;2023-05-07T15:44:57;5.63;;;3.50;;
19113;SDS011;9689;51.052;13.772;2023-05-07T15:50:00;7.10;;;4.63;;
19113;SDS011;9689;51.052;13.772;2023-05-07T15:55:01;7.32;;;4.22;;
19113;SDS011;9689;51.052;13.772;2023-05-07T16:00:03;6.72;;;4.65;;
19113;SDS011;9689;51.052;13.772;2023-05-07T16:05:12;9.30;;;4.38;;
19113;SDS011;9689;51.052;13.772;2023-05-07T16:10:13;4.75;;;3.80;;
19113;SDS011;9689;51.052;13.772;2023-05-07T16:15:14;9.25;;;4.03;;
19113;SDS011;9689;51.052;13.772;2023-05-07T16:20:16;6.68;;;4.53;;
19113;SDS011;9689;51.052;13.772;2023-05-07T16:25:20;8.52;;;5.45;;
19113;SDS011;9689;51.052;13.772;2023-05-07T16:30:21;14.75;;;7.57;;
19113;SDS011;9689;51.052;13.772;2023-05-07T16:35:23;11.68;;;4.93;;
19113;SDS011;9689;51.052;13.772;2023-05-07T16:40:23;9.25;;;5.85;;
19113;SDS011;9689;51.052;13.772;2023-05-07T16:45:24;6.78;;;4.03;;
19113;SDS011;9689;51.052;13.772;2023-05-07T16:50:29;6.97;;;4.13;;
19113;SDS011;9689;51.052;13.772;2023-05-07T16:55:30;7.22;;;4.32;;
19113;SDS011;9689;51.052;13.772;2023-05-07T17:00:38;6.78;;;4.40;;
19113;SDS011;9689;51.052;13.772;2023-05-07T17:05:43;10.00;;;5.03;;
19113;SDS011;9689;51.052;13.772;2023-05-07T17:10:44;9.23;;;4.40;;
19113;SDS011;9689;51.052;13.772;2023-05-07T17:15:45;6.97;;;4.15;;
19113;SDS011;9689;51.052;13.772;2023-05-07T17:20:48;10.90;;;4.38;;
19113;SDS011;9689;51.052;13.772;2023-05-07T17:25:49;6.38;;;3.83;;
19113;SDS011;9689;51.052;13.772;2023-05-07T17:30:49;9.18;;;4.10;;
19113;SDS011;9689;51.052;13.772;2023-05-07T17:35:52;6.10;;;4.45;;
19113;SDS011;9689;51.052;13.772;2023-05-07T17:40:54;7.38;;;4.38;;
19113;SDS011;9689;51.052;13.772;2023-05-07T17:45:54;5.35;;;4.10;;
19113;SDS011;9689;51.052;13.772;2023-05-07T17:51:00;5.90;;;3.60;;
19113;SDS011;9689;51.052;13.772;2023-05-07T17:56:04;8.52;;;4.32;;
19113;SDS011;9689;51.052;13.772;2023-05-07T18:01:05;6.47;;;4.35;;
19113;SDS011;9689;51.052;13.772;2023-05-07T18:06:07;5.78;;;3.95;;
19113;SDS011;9689;51.052;13.772;2023-05-07T18:11:08;8.85;;;4.30;;
19113;SDS011;9689;51.052;13.772;2023-05-07T18:16:09;14.65;;;7.22;;
19113;SDS011;9689;51.052;13.772;2023-05-07T18:21:12;11.82;;;5.68;;
19113;SDS011;9689;51.052;13.772;2023-05-07T18:26:17;9.15;;;5.78;;
19113;SDS011;9689;51.052;13.772;2023-05-07T18:31:17;7.13;;;4.63;;
19113;SDS011;9689;51.052;13.772;2023-05-07T18:36:20;8.52;;;4.97;;
19113;SDS011;9689;51.052;13.772;2023-05-07T18:41:23;8.95;;;5.40;;
19113;SDS011;9689;51.052;13.772;2023-05-07T18:46:24;8.27;;;5.30;;
19113;SDS011;9689;51.052;13.772;2023-05-07T18:51:26;15.70;;;5.10;;
19113;SDS011;9689;51.052;13.772;2023-05-07T18:56:26;6.75;;;4.97;;
19113;SDS011;9689;51.052;13.772;2023-05-07T19:01:27;8.18;;;5.38;;
19113;SDS011;9689;51.052;13.772;2023-05-07T19:06:30;10.20;;;6.18;;
19113;SDS011;9689;51.052;13.772;2023-05-07T19:11:32;8.80;;;5.70;;
19113;SDS011;9689;51.052;13.772;2023-05-07T19:16:32;9.60;;;6.30;;
19113;SDS011;9689;51.052;13.772;2023-05-07T19:21:35;7.75;;;5.72;;
19113;SDS011;9689;51.052;13.772;2023-05-07T19:26:36;7.57;;;5.72;;
19113;SDS011;9689;51.052;13.772;2023-05-07T19:31:37;10.20;;;6.60;;
19113;SDS011;9689;51.052;13.772;2023-05-07T19:36:40;9.45;;;6.28;;
19113;SDS011;9689;51.052;13.772;2023-05-07T19:41:40;12.73;;;6.43;;
19113;SDS011;9689;51.052;13.772;2023-05-07T19:46:41;8.82;;;6.18;;
19113;SDS011;9689;51.052;13.772;2023-05-07T19:51:45;11.75;;;6.47;;
19113;SDS011;9689;51.052;13.772;2023-05-07T19:56:46;8.95;;;6.13;;
19113;SDS011;9689;51.052;13.772;2023-05-07T20:01:46;8.38;;;5.93;;
19113;SDS011;9689;51.052;13.772;2023-05-07T20:06:49;9.57;;;7.00;;
19113;SDS011;9689;51.052;13.772;2023-05-07T20:11:49;9.02;;;6.30;;
19113;SDS011;9689;51.052;13.772;2023-05-07T20:16:50;10.05;;;6.25;;
19113;SDS011;9689;51.052;13.772;2023-05-07T20:21:52;8.52;;;5.68;;
19113;SDS011;9689;51.052;13.772;2023-05-07T20:26:53;11.88;;;5.85;;
19113;SDS011;9689;51.052;13.772;2023-05-07T20:31:53;8.57;;;5.50;;
19113;SDS011;9689;51.052;13.772;2023-05-07T20:36:56;8.40;;;5.38;;
19113;SDS011;9689;51.052;13.772;2023-05-07T20:41:57;6.18;;;4.80;;
19113;SDS011;9689;51.052;13.772;2023-05-07T20:46:58;8.27;;;4.90;;
19113;SDS011;9689;51.052;13.772;2023-05-07T20:52:00;10.00;;;5.45;;
19113;SDS011;9689;51.052;13.772;2023-05-07T20:57:01;6.90;;;4.50;;
19113;SDS011;9689;51.052;13.772;2023-05-07T21:02:02;8.32;;;4.03;;
19113;SDS011;9689;51.052;13.772;2023-05-07T21:07:04;9.93;;;3.97;;
19113;SDS011;9689;51.052;13.772;2023-05-07T21:12:05;8.88;;;4.90;;
19113;SDS011;9689;51.052;13.772;2023-05-07T21:17:06;8.25;;;4.68;;
19113;SDS011;9689;51.052;13.772;2023-05-07T21:22:08;6.53;;;4.25;;
19113;SDS011;9689;51.052;13.772;2023-05-07T21:27:09;7.60;;;4.53;;
19113;SDS011;9689;51.052;13.772;2023-05-07T21:32:11;9.20;;;4.68;;
19113;SDS011;9689;51.052;13.772;2023-05-07T21:37:13;8.20;;;4.18;;
19113;SDS011;9689;51.052;13.772;2023-05-07T21:42:14;7.68;;;4.22;;
19113;SDS011;9689;51.052;13.772;2023-05-07T21:47:14;8.13;;;4.00;;
19113;SDS011;9689;51.052;13.772;2023-05-07T21:52:16;6.80;;;4.55;;
19113;SDS011;9689;51.052;13.772;2023-05-07T21:57:17;9.13;;;4.57;;
19113;SDS011;9689;51.052;13.772;2023-05-07T22:02:18;9.63;;;4.63;;
19113;SDS011;9689;51.052;13.772;2023-05-07T22:07:20;8.88;;;4.47;;
19113;SDS011;9689;51.052;13.772;2023-05-07T22:12:21;8.88;;;4.55;;
19113;SDS011;9689;51.052;13.772;2023-05-07T22:17:22;7.78;;;4.40;;
19113;SDS011;9689;51.052;13.772;2023-05-07T22:22:24;8.73;;;5.47;;
19113;SDS011;9689;51.052;13.772;2023-05-07T22:27:24;10.38;;;4.93;;
19113;SDS011;9689;51.052;13.772;2023-05-07T22:32:25;6.82;;;4.43;;
19113;SDS011;9689;51.052;13.772;2023-05-07T22:37:27;7.68;;;5.07;;
19113;SDS011;9689;51.052;13.772;2023-05-07T22:42:28;7.57;;;4.90;;
19113;SDS011;9689;51.052;13.772;2023-05-07T22:47:29;9.15;;;5.57;;
19113;SDS011;9689;51.052;13.772;2023-05-07T22:52:31;8.70;;;4.85;;
19113;SDS011;9689;51.052;13.772;2023-05-07T22:57:32;9.95;;;5.13;;
19113;SDS011;9689;51.052;13.772;2023-05-07T23:02:33;9.68;;;5.00;;
19113;SDS011;9689;51.052;13.772;2023-05-07T23:07:35;9.45;;;5.55;;
19113;SDS011;9689;51.052;13.772;2023-05-07T23:12:35;8.75;;;5.38;;
19113;SDS011;9689;51.052;13.772;2023-05-07T23:17:36;7.88;;;5.32;;
19113;SDS011;9689;51.052;13.772;2023-05-07T23:22:38;10.00;;;5.55;;
19113;SDS011;9689;51.052;13.772;2023-05-07T23:27:39;7.50;;;4.95;;
19113;SDS011;9689;51.052;13.772;2023-05-07T23:32:40;7.05;;;4.75;;
19113;SDS011;9689;51.052;13.772;2023-05-07T23:37:42;9.65;;;5.53;;
19113;SDS011;9689;51.052;13.772;2023-05-07T23:42:42;23.40;;;5.97;;
19113;SDS011;9689;51.052;13.772;2023-05-07T23:47:43;10.02;;;5.55;;
19113;SDS011;9689;51.052;13.772;2023-05-07T23:52:45;7.95;;;5.38;;
19113;SDS011;9689;51.052;13.772;2023-05-07T23:57:46;8.50;;;5.35;;
